Green Hill, Rhode Island
Current Conditions -  °F | °C
As of 2:53 PM on Saturday 25 Oct 2014 (Local Time) from KWST Reporting Station
Clear Clear  
Wind Chill: 62°   Ceiling: Unl
Heat Index: 62°   Visibility: 10mi
Dew Point: 41°   Wind: 8mph
Humidity: 46%   Direction: 230°SW
Pressure: 29.67"   Gusts: 20mph
Location:  41.4261°N, 71.5353°W
Report Text: KWST 251853Z AUTO 23007G17KT 10SM CLR 17/05 A2967 RMK AO2 SLP046 T01670050
Loading
Personal Weather Stations






























Interactive Weather Map
Tropical Storm Tracking
New forecast layout! Learn more

10-Day Weather Forecast

Advertisements
Track Severe Weather on mobile